sensor_id;sensor_type;location;lat;lon;timestamp;pressure;altitude;pressure_sealevel;temperature;humidity
13348;BME280;6743;49.934;9.138;2024-01-15T00:00:50;99393.78;;;-1.66;100.00
13348;BME280;6743;49.934;9.138;2024-01-15T00:03:16;99390.22;;;-1.65;100.00
13348;BME280;6743;49.934;9.138;2024-01-15T00:05:42;99400.25;;;-1.71;100.00
13348;BME280;6743;49.934;9.138;2024-01-15T00:08:08;99390.56;;;-1.69;100.00
13348;BME280;6743;49.934;9.138;2024-01-15T00:10:34;99378.84;;;-1.75;100.00
13348;BME280;6743;49.934;9.138;2024-01-15T00:13:00;99378.94;;;-1.76;100.00
13348;BME280;6743;49.934;9.138;2024-01-15T00:15:26;99360.16;;;-1.80;100.00
13348;BME280;6743;49.934;9.138;2024-01-15T00:17:53;99374.56;;;-1.76;100.00
13348;BME280;6743;49.934;9.138;2024-01-15T00:20:19;99365.75;;;-1.73;100.00
13348;BME280;6743;49.934;9.138;2024-01-15T00:22:45;99371.75;;;-1.73;100.00
13348;BME280;6743;49.934;9.138;2024-01-15T00:25:11;99367.81;;;-1.78;100.00
13348;BME280;6743;49.934;9.138;2024-01-15T00:27:37;99366.03;;;-1.78;100.00
13348;BME280;6743;49.934;9.138;2024-01-15T00:30:05;99355.66;;;-1.78;100.00
13348;BME280;6743;49.934;9.138;2024-01-15T00:32:31;99361.47;;;-1.74;100.00
13348;BME280;6743;49.934;9.138;2024-01-15T00:34:57;99356.28;;;-1.74;100.00
13348;BME280;6743;49.934;9.138;2024-01-15T00:37:23;99347.75;;;-1.76;100.00
13348;BME280;6743;49.934;9.138;2024-01-15T00:39:49;99344.41;;;-1.78;100.00
13348;BME280;6743;49.934;9.138;2024-01-15T00:42:15;99338.19;;;-1.76;100.00
13348;BME280;6743;49.934;9.138;2024-01-15T00:44:42;99345.16;;;-1.76;100.00
13348;BME280;6743;49.934;9.138;2024-01-15T00:47:08;99336.41;;;-1.75;100.00
13348;BME280;6743;49.934;9.138;2024-01-15T00:49:34;99337.16;;;-1.73;100.00
13348;BME280;6743;49.934;9.138;2024-01-15T00:52:00;99337.16;;;-1.73;100.00
13348;BME280;6743;49.934;9.138;2024-01-15T00:54:26;99333.81;;;-1.75;100.00
13348;BME280;6743;49.934;9.138;2024-01-15T00:56:52;99334.53;;;-1.73;100.00
13348;BME280;6743;49.934;9.138;2024-01-15T00:59:18;99328.50;;;-1.74;100.00
13348;BME280;6743;49.934;9.138;2024-01-15T01:01:46;99332.16;;;-1.76;100.00
13348;BME280;6743;49.934;9.138;2024-01-15T01:04:13;99330.09;;;-1.84;100.00
13348;BME280;6743;49.934;9.138;2024-01-15T01:06:39;99306.31;;;-1.90;100.00
13348;BME280;6743;49.934;9.138;2024-01-15T01:09:05;99327.78;;;-1.76;100.00
13348;BME280;6743;49.934;9.138;2024-01-15T01:11:31;99323.19;;;-1.72;100.00
13348;BME280;6743;49.934;9.138;2024-01-15T01:13:57;99320.47;;;-1.71;100.00
13348;BME280;6743;49.934;9.138;2024-01-15T01:16:23;99322.25;;;-1.71;100.00
13348;BME280;6743;49.934;9.138;2024-01-15T01:18:49;99311.34;;;-1.76;100.00
13348;BME280;6743;49.934;9.138;2024-01-15T01:21:15;99321.09;;;-1.67;100.00
13348;BME280;6743;49.934;9.138;2024-01-15T01:23:42;99307.37;;;-1.69;100.00
13348;BME280;6743;49.934;9.138;2024-01-15T01:26:08;99313.28;;;-1.67;100.00
13348;BME280;6743;49.934;9.138;2024-01-15T01:28:34;99308.19;;;-1.69;100.00
13348;BME280;6743;49.934;9.138;2024-01-15T01:31:00;99317.16;;;-1.73;100.00
13348;BME280;6743;49.934;9.138;2024-01-15T01:33:25;99311.00;;;-1.72;100.00
13348;BME280;6743;49.934;9.138;2024-01-15T01:35:51;99308.75;;;-1.76;100.00
13348;BME280;6743;49.934;9.138;2024-01-15T01:38:19;99318.81;;;-1.72;100.00
13348;BME280;6743;49.934;9.138;2024-01-15T01:40:45;99320.56;;;-1.72;100.00
13348;BME280;6743;49.934;9.138;2024-01-15T01:43:11;99324.94;;;-1.73;100.00
13348;BME280;6743;49.934;9.138;2024-01-15T01:45:38;99324.94;;;-1.73;100.00
13348;BME280;6743;49.934;9.138;2024-01-15T01:48:05;99327.34;;;-1.70;100.00
13348;BME280;6743;49.934;9.138;2024-01-15T01:50:31;99333.47;;;-1.71;100.00
13348;BME280;6743;49.934;9.138;2024-01-15T01:52:57;99322.03;;;-1.68;100.00
13348;BME280;6743;49.934;9.138;2024-01-15T01:55:26;99319.44;;;-1.68;100.00
13348;BME280;6743;49.934;9.138;2024-01-15T01:57:53;99329.84;;;-1.68;100.00
13348;BME280;6743;49.934;9.138;2024-01-15T02:00:25;99323.81;;;-1.69;100.00
13348;BME280;6743;49.934;9.138;2024-01-15T02:02:51;99329.84;;;-1.68;100.00
13348;BME280;6743;49.934;9.138;2024-01-15T02:05:18;99319.44;;;-1.68;100.00
13348;BME280;6743;49.934;9.138;2024-01-15T02:07:45;99307.97;;;-1.66;100.00
13348;BME280;6743;49.934;9.138;2024-01-15T02:10:11;99309.53;;;-1.63;100.00
13348;BME280;6743;49.934;9.138;2024-01-15T02:12:38;99313.78;;;-1.62;100.00
13348;BME280;6743;49.934;9.138;2024-01-15T02:15:04;99306.81;;;-1.62;100.00
13348;BME280;6743;49.934;9.138;2024-01-15T02:17:30;99310.00;;;-1.58;100.00
13348;BME280;6743;49.934;9.138;2024-01-15T02:19:56;99308.34;;;-1.59;100.00
13348;BME280;6743;49.934;9.138;2024-01-15T02:22:22;99308.13;;;-1.56;100.00
13348;BME280;6743;49.934;9.138;2024-01-15T02:24:49;99291.72;;;-1.56;100.00
13348;BME280;6743;49.934;9.138;2024-01-15T02:27:15;99293.47;;;-1.57;100.00
13348;BME280;6743;49.934;9.138;2024-01-15T02:29:41;99282.84;;;-1.54;100.00
13348;BME280;6743;49.934;9.138;2024-01-15T02:32:08;99298.34;;;-1.52;100.00
13348;BME280;6743;49.934;9.138;2024-01-15T02:34:35;99293.16;;;-1.52;100.00
13348;BME280;6743;49.934;9.138;2024-01-15T02:37:00;99292.19;;;-1.51;100.00
13348;BME280;6743;49.934;9.138;2024-01-15T02:39:26;99293.75;;;-1.49;100.00
13348;BME280;6743;49.934;9.138;2024-01-15T02:41:55;99260.34;;;-1.66;100.00
13348;BME280;6743;49.934;9.138;2024-01-15T02:44:23;99290.22;;;-1.48;100.00
13348;BME280;6743;49.934;9.138;2024-01-15T02:46:49;99282.31;;;-1.46;100.00
13348;BME280;6743;49.934;9.138;2024-01-15T02:49:15;99286.56;;;-1.45;100.00
13348;BME280;6743;49.934;9.138;2024-01-15T02:51:41;99275.91;;;-1.42;100.00
13348;BME280;6743;49.934;9.138;2024-01-15T02:54:07;99272.38;;;-1.41;100.00
13348;BME280;6743;49.934;9.138;2024-01-15T02:56:33;99282.06;;;-1.43;100.00
13348;BME280;6743;49.934;9.138;2024-01-15T02:58:59;99274.16;;;-1.42;100.00
13348;BME280;6743;49.934;9.138;2024-01-15T03:01:25;99279.13;;;-1.39;100.00
13348;BME280;6743;49.934;9.138;2024-01-15T03:03:51;99277.22;;;-1.37;100.00
13348;BME280;6743;49.934;9.138;2024-01-15T03:06:17;99285.75;;;-1.35;100.00
13348;BME280;6743;49.934;9.138;2024-01-15T03:08:43;99278.78;;;-1.34;100.00
13348;BME280;6743;49.934;9.138;2024-01-15T03:11:09;99292.63;;;-1.34;100.00
13348;BME280;6743;49.934;9.138;2024-01-15T03:13:35;99289.09;;;-1.33;100.00
13348;BME280;6743;49.934;9.138;2024-01-15T03:16:03;99279.72;;;-1.35;100.00
13348;BME280;6743;49.934;9.138;2024-01-15T03:18:29;99273.47;;;-1.33;100.00
13348;BME280;6743;49.934;9.138;2024-01-15T03:20:55;99260.56;;;-1.34;100.00
13348;BME280;6743;49.934;9.138;2024-01-15T03:23:21;99263.91;;;-1.32;100.00
13348;BME280;6743;49.934;9.138;2024-01-15T03:25:47;99262.25;;;-1.33;100.00
13348;BME280;6743;49.934;9.138;2024-01-15T03:28:12;99257.03;;;-1.33;100.00
13348;BME280;6743;49.934;9.138;2024-01-15T03:30:38;99262.25;;;-1.33;100.00
13348;BME280;6743;49.934;9.138;2024-01-15T03:33:05;99272.53;;;-1.32;100.00
13348;BME280;6743;49.934;9.138;2024-01-15T03:35:31;99241.16;;;-1.41;100.00
13348;BME280;6743;49.934;9.138;2024-01-15T03:37:57;99264.94;;;-1.35;100.00
13348;BME280;6743;49.934;9.138;2024-01-15T03:40:23;99265.69;;;-1.33;100.00
13348;BME280;6743;49.934;9.138;2024-01-15T03:42:49;99264.00;;;-1.34;100.00
13348;BME280;6743;49.934;9.138;2024-01-15T03:45:15;99262.13;;;-1.32;100.00
13348;BME280;6743;49.934;9.138;2024-01-15T03:47:41;99249.13;;;-1.32;100.00
13348;BME280;6743;49.934;9.138;2024-01-15T03:50:08;99260.22;;;-1.30;100.00
13348;BME280;6743;49.934;9.138;2024-01-15T03:52:34;99264.50;;;-1.29;100.00
13348;BME280;6743;49.934;9.138;2024-01-15T03:55:00;99261.87;;;-1.29;100.00
13348;BME280;6743;49.934;9.138;2024-01-15T03:57:26;99261.41;;;-1.34;100.00
13348;BME280;6743;49.934;9.138;2024-01-15T03:59:52;99265.88;;;-1.36;100.00
13348;BME280;6743;49.934;9.138;2024-01-15T04:02:18;99259.03;;;-1.37;100.00
13348;BME280;6743;49.934;9.138;2024-01-15T04:04:44;99271.09;;;-1.36;100.00
13348;BME280;6743;49.934;9.138;2024-01-15T04:07:11;99233.00;;;-1.48;100.00
13348;BME280;6743;49.934;9.138;2024-01-15T04:09:37;99253.81;;;-1.37;100.00
13348;BME280;6743;49.934;9.138;2024-01-15T04:12:03;99264.00;;;-1.34;100.00
13348;BME280;6743;49.934;9.138;2024-01-15T04:14:29;99257.16;;;-1.35;100.00
13348;BME280;6743;49.934;9.138;2024-01-15T04:16:55;99251.72;;;-1.32;100.00
13348;BME280;6743;49.934;9.138;2024-01-15T04:19:21;99250.75;;;-1.31;100.00
13348;BME280;6743;49.934;9.138;2024-01-15T04:21:47;99259.28;;;-1.29;100.00
13348;BME280;6743;49.934;9.138;2024-01-15T04:24:14;99250.16;;;-1.34;100.00
13348;BME280;6743;49.934;9.138;2024-01-15T04:26:40;99250.06;;;-1.33;100.00
13348;BME280;6743;49.934;9.138;2024-01-15T04:29:06;99250.16;;;-1.34;100.00
13348;BME280;6743;49.934;9.138;2024-01-15T04:31:32;99248.28;;;-1.32;100.00
13348;BME280;6743;49.934;9.138;2024-01-15T04:33:58;99249.94;;;-1.31;100.00
13348;BME280;6743;49.934;9.138;2024-01-15T04:36:24;99249.00;;;-1.30;100.00
13348;BME280;6743;49.934;9.138;2024-01-15T04:38:50;99174.97;;;-1.72;100.00
13348;BME280;6743;49.934;9.138;2024-01-15T04:41:16;99224.00;;;-1.44;100.00
13348;BME280;6743;49.934;9.138;2024-01-15T04:43:42;99246.28;;;-1.29;100.00
13348;BME280;6743;49.934;9.138;2024-01-15T04:46:08;99242.75;;;-1.28;100.00
13348;BME280;6743;49.934;9.138;2024-01-15T04:48:35;99247.09;;;-1.28;100.00
13348;BME280;6743;49.934;9.138;2024-01-15T04:51:00;99234.81;;;-1.26;100.00
13348;BME280;6743;49.934;9.138;2024-01-15T04:53:29;99232.22;;;-1.26;100.00
13348;BME280;6743;49.934;9.138;2024-01-15T04:55:55;99223.59;;;-1.27;100.00
13348;BME280;6743;49.934;9.138;2024-01-15T04:58:21;99228.78;;;-1.27;100.00
13348;BME280;6743;49.934;9.138;2024-01-15T05:00:50;99229.38;;;-1.23;100.00
13348;BME280;6743;49.934;9.138;2024-01-15T05:03:16;99235.41;;;-1.23;100.00
13348;BME280;6743;49.934;9.138;2024-01-15T05:05:42;99230.19;;;-1.23;100.00
13348;BME280;6743;49.934;9.138;2024-01-15T05:08:08;99230.19;;;-1.23;100.00
13348;BME280;6743;49.934;9.138;2024-01-15T05:10:35;99234.72;;;-1.25;100.00
13348;BME280;6743;49.934;9.138;2024-01-15T05:13:01;99235.41;;;-1.23;100.00
13348;BME280;6743;49.934;9.138;2024-01-15T05:15:27;99234.00;;;-1.27;100.00
13348;BME280;6743;49.934;9.138;2024-01-15T05:17:53;99234.22;;;-1.30;100.00
13348;BME280;6743;49.934;9.138;2024-01-15T05:20:19;99230.66;;;-1.29;100.00
13348;BME280;6743;49.934;9.138;2024-01-15T05:22:45;99224.53;;;-1.28;100.00
13348;BME280;6743;49.934;9.138;2024-01-15T05:25:11;99231.59;;;-1.30;100.00
13348;BME280;6743;49.934;9.138;2024-01-15T05:27:37;99237.53;;;-1.28;100.00
13348;BME280;6743;49.934;9.138;2024-01-15T05:30:04;99231.37;;;-1.27;100.00
13348;BME280;6743;49.934;9.138;2024-01-15T05:32:31;99229.50;;;-1.25;100.00
13348;BME280;6743;49.934;9.138;2024-01-15T05:34:57;99219.09;;;-1.25;100.00
13348;BME280;6743;49.934;9.138;2024-01-15T05:37:23;99228.78;;;-1.27;100.00
13348;BME280;6743;49.934;9.138;2024-01-15T05:39:49;99159.91;;;-1.67;100.00
13348;BME280;6743;49.934;9.138;2024-01-15T05:42:15;99217.78;;;-1.30;100.00
13348;BME280;6743;49.934;9.138;2024-01-15T05:44:41;99217.56;;;-1.27;100.00
13348;BME280;6743;49.934;9.138;2024-01-15T05:47:07;99212.34;;;-1.27;100.00
13348;BME280;6743;49.934;9.138;2024-01-15T05:49:34;99212.25;;;-1.26;100.00
13348;BME280;6743;49.934;9.138;2024-01-15T05:52:00;99212.09;;;-1.24;100.00
13348;BME280;6743;49.934;9.138;2024-01-15T05:54:26;99218.84;;;-1.22;100.00
13348;BME280;6743;49.934;9.138;2024-01-15T05:56:52;99213.53;;;-1.20;100.00
13348;BME280;6743;49.934;9.138;2024-01-15T05:59:18;99215.31;;;-1.21;100.00
13348;BME280;6743;49.934;9.138;2024-01-15T06:01:44;99214.84;;;-1.26;100.00
13348;BME280;6743;49.934;9.138;2024-01-15T06:04:10;99209.63;;;-1.26;100.00
13348;BME280;6743;49.934;9.138;2024-01-15T06:06:36;99211.16;;;-1.23;100.00
13348;BME280;6743;49.934;9.138;2024-01-15T06:09:02;99195.69;;;-1.25;100.00
13348;BME280;6743;49.934;9.138;2024-01-15T06:11:30;99209.37;;;-1.23;100.00
13348;BME280;6743;49.934;9.138;2024-01-15T06:13:57;99213.66;;;-1.22;100.00
13348;BME280;6743;49.934;9.138;2024-01-15T06:16:23;99199.22;;;-1.26;100.00
13348;BME280;6743;49.934;9.138;2024-01-15T06:18:49;99198.88;;;-1.21;100.00
13348;BME280;6743;49.934;9.138;2024-01-15T06:21:16;99199.69;;;-1.21;100.00
13348;BME280;6743;49.934;9.138;2024-01-15T06:23:42;99211.06;;;-1.22;100.00
13348;BME280;6743;49.934;9.138;2024-01-15T06:26:09;99201.47;;;-1.21;100.00
13348;BME280;6743;49.934;9.138;2024-01-15T06:28:37;99203.50;;;-1.25;100.00
13348;BME280;6743;49.934;9.138;2024-01-15T06:31:03;99153.88;;;-1.56;100.00
13348;BME280;6743;49.934;9.138;2024-01-15T06:33:29;99192.69;;;-1.31;100.00
13348;BME280;6743;49.934;9.138;2024-01-15T06:35:55;99202.06;;;-1.29;100.00
13348;BME280;6743;49.934;9.138;2024-01-15T06:38:21;99207.87;;;-1.25;100.00
13348;BME280;6743;49.934;9.138;2024-01-15T06:40:49;99211.41;;;-1.26;100.00
13348;BME280;6743;49.934;9.138;2024-01-15T06:43:15;99218.38;;;-1.27;100.00
13348;BME280;6743;49.934;9.138;2024-01-15T06:45:41;99219.22;;;-1.26;100.00
13348;BME280;6743;49.934;9.138;2024-01-15T06:48:07;99222.75;;;-1.27;100.00
13348;BME280;6743;49.934;9.138;2024-01-15T06:50:33;99223.69;;;-1.28;100.00
13348;BME280;6743;49.934;9.138;2024-01-15T06:53:00;99213.38;;;-1.41;100.00
13348;BME280;6743;49.934;9.138;2024-01-15T06:55:26;99182.38;;;-1.55;100.00
13348;BME280;6743;49.934;9.138;2024-01-15T06:57:54;99210.06;;;-1.43;100.00
13348;BME280;6743;49.934;9.138;2024-01-15T07:00:20;99216.34;;;-1.34;100.00
13348;BME280;6743;49.934;9.138;2024-01-15T07:02:47;99216.25;;;-1.33;100.00
13348;BME280;6743;49.934;9.138;2024-01-15T07:05:13;99205.00;;;-1.33;100.00
13348;BME280;6743;49.934;9.138;2024-01-15T07:07:39;99215.31;;;-1.32;100.00
13348;BME280;6743;49.934;9.138;2024-01-15T07:10:07;99212.56;;;-1.30;100.00
13348;BME280;6743;49.934;9.138;2024-01-15T07:12:33;99210.56;;;-1.27;100.00
13348;BME280;6743;49.934;9.138;2024-01-15T07:15:00;99212.94;;;-1.24;100.00
13348;BME280;6743;49.934;9.138;2024-01-15T07:17:27;99193.28;;;-1.39;100.00
13348;BME280;6743;49.934;9.138;2024-01-15T07:19:53;99218.84;;;-1.22;100.00
13348;BME280;6743;49.934;9.138;2024-01-15T07:22:19;99217.09;;;-1.21;100.00
13348;BME280;6743;49.934;9.138;2024-01-15T07:24:46;99209.16;;;-1.20;100.00
13348;BME280;6743;49.934;9.138;2024-01-15T07:27:12;99216.03;;;-1.18;100.00
13348;BME280;6743;49.934;9.138;2024-01-15T07:29:38;99226.31;;;-1.17;100.00
13348;BME280;6743;49.934;9.138;2024-01-15T07:32:05;99209.06;;;-1.18;100.00
13348;BME280;6743;49.934;9.138;2024-01-15T07:34:33;99215.19;;;-1.19;100.00
13348;BME280;6743;49.934;9.138;2024-01-15T07:36:59;99214.94;;;-1.16;100.00
13348;BME280;6743;49.934;9.138;2024-01-15T07:39:25;99201.22;;;-1.29;100.00
13348;BME280;6743;49.934;9.138;2024-01-15T07:41:51;99223.59;;;-1.15;100.00
13348;BME280;6743;49.934;9.138;2024-01-15T07:44:17;99219.22;;;-1.15;100.00
13348;BME280;6743;49.934;9.138;2024-01-15T07:46:44;99225.97;;;-1.12;100.00
13348;BME280;6743;49.934;9.138;2024-01-15T07:49:11;99219.00;;;-1.12;100.00
13348;BME280;6743;49.934;9.138;2024-01-15T07:51:37;99163.13;;;-1.41;100.00
13348;BME280;6743;49.934;9.138;2024-01-15T07:54:06;99217.91;;;-1.09;100.00
13348;BME280;6743;49.934;9.138;2024-01-15T07:56:32;99211.88;;;-1.10;100.00
13348;BME280;6743;49.934;9.138;2024-01-15T07:58:59;99204.56;;;-1.05;100.00
13348;BME280;6743;49.934;9.138;2024-01-15T08:01:25;99206.25;;;-1.04;100.00
13348;BME280;6743;49.934;9.138;2024-01-15T08:03:51;99211.06;;;-0.99;100.00
13348;BME280;6743;49.934;9.138;2024-01-15T08:06:19;99206.59;;;-0.97;100.00
13348;BME280;6743;49.934;9.138;2024-01-15T08:08:45;99204.78;;;-0.97;100.00
13348;BME280;6743;49.934;9.138;2024-01-15T08:11:11;99200.31;;;-0.95;100.00
13348;BME280;6743;49.934;9.138;2024-01-15T08:13:37;99199.25;;;-0.92;100.00
13348;BME280;6743;49.934;9.138;2024-01-15T08:16:03;99195.72;;;-0.91;100.00
13348;BME280;6743;49.934;9.138;2024-01-15T08:18:30;99203.38;;;-0.90;100.00
13348;BME280;6743;49.934;9.138;2024-01-15T08:20:56;99204.94;;;-0.87;100.00
13348;BME280;6743;49.934;9.138;2024-01-15T08:23:22;99136.66;;;-1.13;100.00
13348;BME280;6743;49.934;9.138;2024-01-15T08:25:50;99189.78;;;-0.82;100.00
13348;BME280;6743;49.934;9.138;2024-01-15T08:28:16;99192.87;;;-0.77;100.00
13348;BME280;6743;49.934;9.138;2024-01-15T08:30:42;99191.19;;;-0.78;100.00
13348;BME280;6743;49.934;9.138;2024-01-15T08:33:08;99178.66;;;-0.73;100.00
13348;BME280;6743;49.934;9.138;2024-01-15T08:35:35;99158.78;;;-0.85;100.00
13348;BME280;6743;49.934;9.138;2024-01-15T08:38:01;99163.25;;;-0.76;100.00
13348;BME280;6743;49.934;9.138;2024-01-15T08:40:29;99083.56;;;-1.22;100.00
13348;BME280;6743;49.934;9.138;2024-01-15T08:42:56;99173.56;;;-0.63;100.00
13348;BME280;6743;49.934;9.138;2024-01-15T08:45:22;99188.09;;;-0.61;100.00
13348;BME280;6743;49.934;9.138;2024-01-15T08:47:48;99184.53;;;-0.60;100.00
13348;BME280;6743;49.934;9.138;2024-01-15T08:50:14;99179.22;;;-0.58;100.00
13348;BME280;6743;49.934;9.138;2024-01-15T08:52:41;99184.31;;;-0.57;100.00
13348;BME280;6743;49.934;9.138;2024-01-15T08:55:07;99190.38;;;-0.56;100.00
13348;BME280;6743;49.934;9.138;2024-01-15T08:57:34;99190.09;;;-0.53;100.00
13348;BME280;6743;49.934;9.138;2024-01-15T09:00:00;99193.53;;;-0.53;100.00
13348;BME280;6743;49.934;9.138;2024-01-15T09:02:26;99195.19;;;-0.52;100.00
13348;BME280;6743;49.934;9.138;2024-01-15T09:04:52;99142.69;;;-0.79;100.00
13348;BME280;6743;49.934;9.138;2024-01-15T09:07:18;99190.44;;;-0.47;100.00
13348;BME280;6743;49.934;9.138;2024-01-15T09:09:44;99202.53;;;-0.46;100.00
13348;BME280;6743;49.934;9.138;2024-01-15T09:12:11;99146.47;;;-0.72;100.00
13348;BME280;6743;49.934;9.138;2024-01-15T09:14:42;99192.72;;;-0.42;100.00
13348;BME280;6743;49.934;9.138;2024-01-15T09:17:08;99193.41;;;-0.40;100.00
13348;BME280;6743;49.934;9.138;2024-01-15T09:19:34;99186.53;;;-0.41;100.00
13348;BME280;6743;49.934;9.138;2024-01-15T09:22:00;99192.44;;;-0.39;100.00
13348;BME280;6743;49.934;9.138;2024-01-15T09:24:26;99179.31;;;-0.37;100.00
13348;BME280;6743;49.934;9.138;2024-01-15T09:26:52;99178.34;;;-0.36;100.00
13348;BME280;6743;49.934;9.138;2024-01-15T09:29:18;99182.62;;;-0.35;100.00
13348;BME280;6743;49.934;9.138;2024-01-15T09:31:45;99182.38;;;-0.32;100.00
13348;BME280;6743;49.934;9.138;2024-01-15T09:34:13;99183.19;;;-0.32;100.00
13348;BME280;6743;49.934;9.138;2024-01-15T09:36:39;99193.50;;;-0.30;100.00
13348;BME280;6743;49.934;9.138;2024-01-15T09:39:06;99187.56;;;-0.32;100.00
13348;BME280;6743;49.934;9.138;2024-01-15T09:41:34;99190.63;;;-0.27;100.00
13348;BME280;6743;49.934;9.138;2024-01-15T09:44:00;99182.69;;;-0.26;100.00
13348;BME280;6743;49.934;9.138;2024-01-15T09:46:27;99169.81;;;-0.38;100.00
13348;BME280;6743;49.934;9.138;2024-01-15T09:48:55;99186.75;;;-0.22;100.00
13348;BME280;6743;49.934;9.138;2024-01-15T09:51:21;99192.53;;;-0.18;100.00
13348;BME280;6743;49.934;9.138;2024-01-15T09:53:48;99196.78;;;-0.17;100.00
13348;BME280;6743;49.934;9.138;2024-01-15T09:56:14;99193.22;;;-0.16;100.00
13348;BME280;6743;49.934;9.138;2024-01-15T09:58:41;99187.91;;;-0.15;100.00
13348;BME280;6743;49.934;9.138;2024-01-15T10:01:08;99189.19;;;-0.09;100.00
13348;BME280;6743;49.934;9.138;2024-01-15T10:03:34;99179.59;;;-0.09;100.00
13348;BME280;6743;49.934;9.138;2024-01-15T10:06:04;99188.09;;;-0.07;100.00
13348;BME280;6743;49.934;9.138;2024-01-15T10:08:32;99186.31;;;-0.06;100.00
13348;BME280;6743;49.934;9.138;2024-01-15T10:10:58;99147.75;;;-0.23;100.00
13348;BME280;6743;49.934;9.138;2024-01-15T10:13:24;99178.25;;;-0.03;100.00
13348;BME280;6743;49.934;9.138;2024-01-15T10:15:51;99183.47;;;-0.03;100.00
13348;BME280;6743;49.934;9.138;2024-01-15T10:18:17;99171.97;;;-0.01;100.00
13348;BME280;6743;49.934;9.138;2024-01-15T10:20:43;99166.38;;;0.04;100.00
13348;BME280;6743;49.934;9.138;2024-01-15T10:23:10;99170.37;;;0.08;100.00
13348;BME280;6743;49.934;9.138;2024-01-15T10:25:36;99139.28;;;-0.05;100.00
13348;BME280;6743;49.934;9.138;2024-01-15T10:28:03;99164.66;;;0.14;100.00
13348;BME280;6743;49.934;9.138;2024-01-15T10:30:30;99164.53;;;0.16;100.00
13348;BME280;6743;49.934;9.138;2024-01-15T10:32:58;99163.22;;;0.21;100.00
13348;BME280;6743;49.934;9.138;2024-01-15T10:35:27;99158.47;;;0.26;100.00
13348;BME280;6743;49.934;9.138;2024-01-15T10:37:53;99153.56;;;0.33;100.00
13348;BME280;6743;49.934;9.138;2024-01-15T10:40:20;99150.84;;;0.34;100.00
13348;BME280;6743;49.934;9.138;2024-01-15T10:42:46;99148.66;;;0.39;100.00
13348;BME280;6743;49.934;9.138;2024-01-15T10:45:13;99145.94;;;0.41;100.00
13348;BME280;6743;49.934;9.138;2024-01-15T10:47:40;99150.06;;;0.44;100.00
13348;BME280;6743;49.934;9.138;2024-01-15T10:50:07;99162.16;;;0.45;100.00
13348;BME280;6743;49.934;9.138;2024-01-15T10:52:34;99096.06;;;0.14;100.00
13348;BME280;6743;49.934;9.138;2024-01-15T10:55:01;99113.66;;;0.21;100.00
13348;BME280;6743;49.934;9.138;2024-01-15T10:57:29;99140.97;;;0.38;100.00
13348;BME280;6743;49.934;9.138;2024-01-15T10:59:55;99140.72;;;0.41;100.00
13348;BME280;6743;49.934;9.138;2024-01-15T11:02:21;99131.06;;;0.42;100.00
13348;BME280;6743;49.934;9.138;2024-01-15T11:04:48;99128.22;;;0.45;100.00
13348;BME280;6743;49.934;9.138;2024-01-15T11:07:14;99123.13;;;0.43;100.00
13348;BME280;6743;49.934;9.138;2024-01-15T11:09:40;99133.44;;;0.45;100.00
13348;BME280;6743;49.934;9.138;2024-01-15T11:12:08;99129.31;;;0.42;100.00
13348;BME280;6743;49.934;9.138;2024-01-15T11:14:38;99138.91;;;0.42;100.00
13348;BME280;6743;49.934;9.138;2024-01-15T11:17:04;99139.31;;;0.37;100.00
13348;BME280;6743;49.934;9.138;2024-01-15T11:19:37;99117.81;;;0.24;100.00
13348;BME280;6743;49.934;9.138;2024-01-15T11:22:07;99133.13;;;0.38;100.00
13348;BME280;6743;49.934;9.138;2024-01-15T11:24:35;99129.69;;;0.37;100.00
13348;BME280;6743;49.934;9.138;2024-01-15T11:27:02;99130.66;;;0.36;100.00
13348;BME280;6743;49.934;9.138;2024-01-15T11:29:29;99137.91;;;0.33;100.00
13348;BME280;6743;49.934;9.138;2024-01-15T11:31:58;99125.81;;;0.32;100.00
13348;BME280;6743;49.934;9.138;2024-01-15T11:34:49;99131.03;;;0.32;100.00
13348;BME280;6743;49.934;9.138;2024-01-15T11:37:16;99141.47;;;0.32;100.00
13348;BME280;6743;49.934;9.138;2024-01-15T11:39:42;99125.75;;;0.22;100.00
13348;BME280;6743;49.934;9.138;2024-01-15T11:42:10;99116.66;;;0.17;100.00
13348;BME280;6743;49.934;9.138;2024-01-15T11:44:37;99132.81;;;0.31;100.00
13348;BME280;6743;49.934;9.138;2024-01-15T11:47:05;99118.50;;;0.26;100.00
13348;BME280;6743;49.934;9.138;2024-01-15T11:49:57;99133.25;;;0.36;100.00
13348;BME280;6743;49.934;9.138;2024-01-15T11:52:25;99136.69;;;0.37;100.00
13348;BME280;6743;49.934;9.138;2024-01-15T11:54:56;99135.03;;;0.36;100.00
13348;BME280;6743;49.934;9.138;2024-01-15T11:57:33;99135.84;;;0.36;100.00
13348;BME280;6743;49.934;9.138;2024-01-15T12:00:03;99130.09;;;0.33;100.00
13348;BME280;6743;49.934;9.138;2024-01-15T12:02:30;99127.47;;;0.33;100.00
13348;BME280;6743;49.934;9.138;2024-01-15T12:04:56;99120.47;;;0.33;100.00
13348;BME280;6743;49.934;9.138;2024-01-15T12:07:22;99116.09;;;0.34;100.00
13348;BME280;6743;49.934;9.138;2024-01-15T12:09:48;99094.22;;;0.25;100.00
13348;BME280;6743;49.934;9.138;2024-01-15T12:12:21;99111.31;;;0.39;100.00
13348;BME280;6743;49.934;9.138;2024-01-15T12:14:50;99107.88;;;0.38;100.00
13348;BME280;6743;49.934;9.138;2024-01-15T12:17:16;99111.31;;;0.39;100.00
13348;BME280;6743;49.934;9.138;2024-01-15T12:19:44;99101.81;;;0.38;100.00
13348;BME280;6743;49.934;9.138;2024-01-15T12:22:10;99103.59;;;0.37;100.00
13348;BME280;6743;49.934;9.138;2024-01-15T12:24:36;99099.78;;;0.42;100.00
13348;BME280;6743;49.934;9.138;2024-01-15T12:27:02;99097.16;;;0.42;100.00
13348;BME280;6743;49.934;9.138;2024-01-15T12:29:28;99067.41;;;0.23;100.00
13348;BME280;6743;49.934;9.138;2024-01-15T12:31:55;99080.25;;;0.36;100.00
13348;BME280;6743;49.934;9.138;2024-01-15T12:34:21;99107.13;;;0.48;100.00
13348;BME280;6743;49.934;9.138;2024-01-15T12:36:48;99105.34;;;0.48;100.00
13348;BME280;6743;49.934;9.138;2024-01-15T12:39:13;99107.94;;;0.48;100.00
13348;BME280;6743;49.934;9.138;2024-01-15T12:41:41;99100.13;;;0.48;100.00
13348;BME280;6743;49.934;9.138;2024-01-15T12:44:07;99108.06;;;0.47;100.00
13348;BME280;6743;49.934;9.138;2024-01-15T12:46:33;99094.06;;;0.48;100.00
13348;BME280;6743;49.934;9.138;2024-01-15T12:49:00;99099.28;;;0.48;100.00
13348;BME280;6743;49.934;9.138;2024-01-15T12:51:26;99106.28;;;0.47;100.00
13348;BME280;6743;49.934;9.138;2024-01-15T12:53:53;99107.13;;;0.48;100.00
13348;BME280;6743;49.934;9.138;2024-01-15T12:56:19;99090.47;;;0.49;100.00
13348;BME280;6743;49.934;9.138;2024-01-15T12:58:45;99099.28;;;0.48;100.00